Time;durP1;ratioP1;P1;durP2;ratioP2;P2;SDS_P1;SDS_P2;PMS_P1;PMS_P2;Temp;Humidity;BMP_temperature;BMP_pressure;BME280_temperature;BME280_humidity;BME280_pressure;Samples;Min_cycle;Max_cycle;Signal;HPM_P1;HPM_P2
2023/09/09 00:00:52;;;;;;;85.82;77.65;;;24.00;99.90;;;;;;4996953;28;20070;-77
2023/09/09 00:03:22;;;;;;;83.97;75.93;;;24.00;99.90;;;;;;4997138;28;20026;-72
2023/09/09 00:05:48;;;;;;;82.55;74.60;;;23.90;99.90;;;;;;4997085;28;20022;-69
2023/09/09 00:08:16;;;;;;;84.00;76.20;;;23.90;99.90;;;;;;4996977;28;20025;-73
2023/09/09 00:10:42;;;;;;;85.75;77.47;;;23.90;99.90;;;;;;4997057;28;20077;-76
2023/09/09 00:13:09;;;;;;;88.35;79.88;;;23.90;99.90;;;;;;4997045;28;20459;-76
2023/09/09 00:15:34;;;;;;;83.55;75.55;;;23.80;99.90;;;;;;4996622;28;20027;-77
2023/09/09 00:18:02;;;;;;;86.15;77.85;;;23.90;99.90;;;;;;4997049;28;20061;-72
2023/09/09 00:20:40;;;;;;;85.03;77.30;;;23.80;99.90;;;;;;4996679;28;20045;-68
2023/09/09 00:23:09;;;;;;;82.45;74.75;;;23.90;99.90;;;;;;4996806;28;20041;-77
2023/09/09 00:25:36;;;;;;;81.30;73.40;;;23.80;99.90;;;;;;4996573;28;20446;-75
2023/09/09 00:28:02;;;;;;;87.10;78.70;;;23.80;99.90;;;;;;4996730;28;20014;-77
2023/09/09 00:30:28;;;;;;;84.07;75.72;;;23.80;99.90;;;;;;4996411;28;20025;-77
2023/09/09 00:32:53;;;;;;;85.30;77.40;;;23.70;99.90;;;;;;4996601;28;20018;-76
2023/09/09 00:35:20;;;;;;;84.72;76.82;;;23.70;99.90;;;;;;4996729;28;20099;-75
2023/09/09 00:37:45;;;;;;;86.03;77.88;;;23.70;99.90;;;;;;4996656;28;20027;-76
2023/09/09 00:40:11;;;;;;;85.72;77.28;;;23.70;99.90;;;;;;4996247;28;20092;-77
2023/09/09 00:42:37;;;;;;;87.15;79.03;;;23.70;99.90;;;;;;4996324;28;20480;-68
2023/09/09 00:45:03;;;;;;;83.85;75.88;;;23.60;99.90;;;;;;4996139;28;20045;-75
2023/09/09 00:47:29;;;;;;;84.32;76.13;;;23.60;99.90;;;;;;4990576;28;20033;-68
2023/09/09 00:49:55;;;;;;;81.75;73.90;;;23.60;99.90;;;;;;4993309;28;20026;-68
2023/09/09 00:52:21;;;;;;;80.90;73.22;;;23.50;99.90;;;;;;4993662;28;20037;-70
2023/09/09 00:54:47;;;;;;;81.60;73.75;;;23.50;99.90;;;;;;4995405;28;20065;-76
2023/09/09 00:57:16;;;;;;;87.20;78.70;;;23.50;99.90;;;;;;4996384;28;20018;-76
2023/09/09 00:59:41;;;;;;;85.82;77.70;;;23.50;99.90;;;;;;4994796;28;20145;-69
2023/09/09 01:02:07;;;;;;;91.50;82.75;;;23.50;99.90;;;;;;4996113;28;20464;-68
2023/09/09 01:04:33;;;;;;;89.82;81.43;;;23.50;99.90;;;;;;4995250;28;20030;-76
2023/09/09 01:07:01;;;;;;;87.50;79.30;;;23.40;99.90;;;;;;4996128;28;20022;-71
2023/09/09 01:09:29;;;;;;;90.65;82.15;;;23.40;99.90;;;;;;4995891;28;20052;-67
2023/09/09 01:11:54;;;;;;;88.82;80.45;;;23.40;99.90;;;;;;4996076;28;20062;-76
2023/09/09 01:14:20;;;;;;;90.65;82.18;;;23.40;99.90;;;;;;4995553;28;20078;-77
2023/09/09 01:16:50;;;;;;;88.88;80.40;;;23.40;99.90;;;;;;4995935;28;20094;-70
2023/09/09 01:19:18;;;;;;;86.93;78.63;;;23.40;99.90;;;;;;4996033;28;20030;-69
2023/09/09 01:21:45;;;;;;;89.85;81.45;;;23.40;99.90;;;;;;4995522;28;20034;-76
2023/09/09 01:24:15;;;;;;;93.45;84.75;;;23.40;99.90;;;;;;4995722;28;20023;-68
2023/09/09 01:26:45;;;;;;;91.03;82.43;;;23.30;99.90;;;;;;4995589;28;20496;-68
2023/09/09 01:29:11;;;;;;;88.57;80.15;;;23.30;99.90;;;;;;4995410;28;20027;-67
2023/09/09 01:31:37;;;;;;;90.35;82.03;;;23.30;99.90;;;;;;4995528;28;20037;-76
2023/09/09 01:34:03;;;;;;;90.07;81.35;;;23.30;99.90;;;;;;4995447;28;20022;-72
2023/09/09 01:36:29;;;;;;;89.05;80.75;;;23.30;99.90;;;;;;4995531;28;20034;-70
2023/09/09 01:38:54;;;;;;;89.18;80.93;;;23.20;99.90;;;;;;4995379;28;20509;-76
2023/09/09 01:41:20;;;;;;;90.47;81.97;;;23.30;99.90;;;;;;4995375;28;20035;-69
2023/09/09 01:43:46;;;;;;;91.45;82.63;;;23.20;99.90;;;;;;4995089;28;20026;-70
2023/09/09 01:46:11;;;;;;;92.93;83.85;;;23.20;99.90;;;;;;4995391;28;20022;-76
2023/09/09 01:48:37;;;;;;;92.65;83.90;;;23.20;99.90;;;;;;4995249;28;20034;-76
2023/09/09 01:51:03;;;;;;;92.18;83.22;;;23.20;99.90;;;;;;4995078;28;20033;-69
2023/09/09 01:53:29;;;;;;;91.28;82.25;;;23.10;99.90;;;;;;4995154;28;20023;-76
2023/09/09 01:56:00;;;;;;;92.15;83.55;;;23.10;99.90;;;;;;4995171;28;20073;-69
2023/09/09 01:58:26;;;;;;;96.13;87.20;;;23.10;99.90;;;;;;4994890;28;20018;-69
2023/09/09 02:00:52;;;;;;;95.53;86.40;;;23.10;99.90;;;;;;4994975;28;20040;-74
2023/09/09 02:03:17;;;;;;;92.80;83.75;;;23.10;99.90;;;;;;4994952;28;20023;-70
2023/09/09 02:05:43;;;;;;;92.00;83.13;;;23.00;99.90;;;;;;4994864;28;20065;-74
2023/09/09 02:08:09;;;;;;;90.03;81.63;;;23.00;99.90;;;;;;4995113;28;20096;-68
2023/09/09 02:10:34;;;;;;;89.53;80.82;;;23.00;99.90;;;;;;4994824;28;20034;-77
2023/09/09 02:13:00;;;;;;;88.07;79.68;;;23.00;99.90;;;;;;4994711;28;20088;-76
2023/09/09 02:15:25;;;;;;;88.72;79.93;;;23.00;99.90;;;;;;4994751;28;20077;-72
2023/09/09 02:17:51;;;;;;;88.75;80.22;;;23.00;99.90;;;;;;4994610;28;20476;-75
2023/09/09 02:20:17;;;;;;;88.18;79.85;;;22.90;99.90;;;;;;4994317;28;20078;-77
2023/09/09 02:22:42;;;;;;;87.47;78.97;;;22.90;99.90;;;;;;4994817;28;20023;-73
2023/09/09 02:25:08;;;;;;;87.28;78.95;;;22.90;99.90;;;;;;4994469;28;20037;-72
2023/09/09 02:27:34;;;;;;;86.22;77.90;;;22.90;99.90;;;;;;4994383;28;20480;-75
2023/09/09 02:30:01;;;;;;;86.03;77.78;;;22.80;99.90;;;;;;4994382;28;20026;-69
2023/09/09 02:32:27;;;;;;;88.68;80.05;;;22.90;99.90;;;;;;4994496;28;20033;-74
2023/09/09 02:34:52;;;;;;;87.40;79.10;;;22.80;99.90;;;;;;4994360;28;20022;-71
2023/09/09 02:37:20;;;;;;;86.53;78.13;;;22.80;99.90;;;;;;4994681;28;20077;-68
2023/09/09 02:39:50;;;;;;;90.43;81.60;;;22.80;99.90;;;;;;4994088;28;20034;-76
2023/09/09 02:42:18;;;;;;;86.72;78.20;;;22.80;99.90;;;;;;4993965;28;20046;-75
2023/09/09 02:44:44;;;;;;;86.95;78.55;;;22.80;99.90;;;;;;4994179;28;20022;-76
2023/09/09 02:47:12;;;;;;;82.93;74.93;;;22.80;99.90;;;;;;4994170;28;20033;-77
2023/09/09 02:49:38;;;;;;;85.60;77.15;;;22.80;99.90;;;;;;4994233;28;20022;-77
2023/09/09 02:52:04;;;;;;;84.38;76.22;;;22.80;99.90;;;;;;4994116;28;20146;-74
2023/09/09 02:54:30;;;;;;;84.22;76.03;;;22.70;99.90;;;;;;4994100;28;20109;-69
2023/09/09 02:56:55;;;;;;;83.15;75.15;;;22.70;99.90;;;;;;4993584;28;20106;-77
2023/09/09 02:59:22;;;;;;;84.55;76.35;;;22.70;99.90;;;;;;4994111;28;20022;-77
2023/09/09 03:01:48;;;;;;;83.72;75.65;;;22.70;99.90;;;;;;4993774;28;20064;-73
2023/09/09 03:04:13;;;;;;;83.82;75.55;;;22.70;99.90;;;;;;4993887;28;20030;-77
2023/09/09 03:06:39;;;;;;;83.63;75.38;;;22.60;99.90;;;;;;4993966;28;20022;-69
2023/09/09 03:09:06;;;;;;;82.53;74.28;;;22.60;99.90;;;;;;4993620;28;20367;-76
2023/09/09 03:11:32;;;;;;;84.18;75.93;;;22.60;99.90;;;;;;4993873;28;20038;-74
2023/09/09 03:13:58;;;;;;;88.05;79.22;;;22.60;99.90;;;;;;4993873;28;20038;-76
2023/09/09 03:16:23;;;;;;;87.43;78.68;;;22.60;99.90;;;;;;4993722;28;20060;-77
2023/09/09 03:18:49;;;;;;;86.50;78.13;;;22.60;99.90;;;;;;4993911;28;20387;-76
2023/09/09 03:21:14;;;;;;;85.15;76.72;;;22.50;99.90;;;;;;4993451;28;20045;-73
2023/09/09 03:23:40;;;;;;;83.60;75.55;;;22.50;99.90;;;;;;4993712;28;20365;-74
2023/09/09 03:26:06;;;;;;;82.25;74.05;;;22.50;99.90;;;;;;4995617;28;20026;-77
2023/09/09 03:28:31;;;;;;;87.15;78.45;;;22.50;99.90;;;;;;5000254;28;20098;-75
2023/09/09 03:30:58;;;;;;;90.53;81.80;;;22.50;99.90;;;;;;5000284;28;20488;-76
2023/09/09 03:33:26;;;;;;;86.80;78.07;;;22.50;99.90;;;;;;5000215;28;20022;-68
2023/09/09 03:35:52;;;;;;;90.22;81.13;;;22.50;99.90;;;;;;5000094;28;20468;-76
2023/09/09 03:38:18;;;;;;;90.93;81.70;;;22.50;99.90;;;;;;4999822;28;20019;-76
2023/09/09 03:40:43;;;;;;;92.28;82.97;;;22.50;99.90;;;;;;5000136;28;20042;-75
2023/09/09 03:43:09;;;;;;;93.75;84.18;;;22.40;99.90;;;;;;4999879;28;20026;-76
2023/09/09 03:45:35;;;;;;;100.15;90.00;;;22.40;99.90;;;;;;5000070;28;20026;-72
2023/09/09 03:48:03;;;;;;;95.53;85.68;;;22.40;99.90;;;;;;5000038;28;20067;-70
2023/09/09 03:50:28;;;;;;;96.38;86.32;;;22.40;99.90;;;;;;5000002;28;20053;-77
2023/09/09 03:52:54;;;;;;;95.07;85.60;;;22.30;99.90;;;;;;4999566;28;20105;-77
2023/09/09 03:55:20;;;;;;;98.78;88.50;;;22.30;99.90;;;;;;5000127;28;20471;-73
2023/09/09 03:57:45;;;;;;;103.10;92.63;;;22.40;99.90;;;;;;4999991;28;20030;-72
2023/09/09 04:00:12;;;;;;;100.40;90.00;;;22.30;99.90;;;;;;4999797;28;20452;-77
2023/09/09 04:02:38;;;;;;;102.18;91.78;;;22.30;99.90;;;;;;4999871;28;20490;-76
2023/09/09 04:05:05;;;;;;;100.88;90.78;;;22.20;99.90;;;;;;4999923;28;20027;-77
2023/09/09 04:07:35;;;;;;;98.00;88.10;;;22.30;99.90;;;;;;4999513;28;20022;-70
2023/09/09 04:10:04;;;;;;;98.05;88.22;;;22.30;99.90;;;;;;4999762;28;20113;-68
2023/09/09 04:12:29;;;;;;;105.00;94.22;;;22.20;99.90;;;;;;4999759;28;20045;-67
2023/09/09 04:14:55;;;;;;;109.70;98.45;;;22.20;99.90;;;;;;4999934;28;20109;-77
2023/09/09 04:17:21;;;;;;;111.40;99.68;;;22.10;99.90;;;;;;4999643;28;20030;-76
2023/09/09 04:19:46;;;;;;;113.22;101.47;;;22.20;99.90;;;;;;4999627;28;20066;-75
2023/09/09 04:22:12;;;;;;;108.57;97.85;;;22.10;99.90;;;;;;4998153;28;20081;-73
2023/09/09 04:24:37;;;;;;;111.88;100.25;;;22.20;99.90;;;;;;4999685;28;20479;-69
2023/09/09 04:27:03;;;;;;;112.00;100.60;;;22.20;99.90;;;;;;4999782;28;20085;-76
2023/09/09 04:29:29;;;;;;;117.18;105.30;;;22.20;99.90;;;;;;4999672;28;20483;-77
2023/09/09 04:31:55;;;;;;;118.32;106.22;;;22.10;99.90;;;;;;4999645;28;20058;-73
2023/09/09 04:34:21;;;;;;;117.68;105.53;;;22.10;99.90;;;;;;4999593;28;20026;-71
2023/09/09 04:36:47;;;;;;;117.00;105.10;;;22.10;99.90;;;;;;4999419;28;20394;-70
2023/09/09 04:39:16;;;;;;;117.95;105.88;;;22.10;99.90;;;;;;4995254;28;20030;-75
2023/09/09 04:41:44;;;;;;;121.70;109.13;;;22.10;99.90;;;;;;4996526;28;20435;-69
2023/09/09 04:44:10;;;;;;;121.45;109.10;;;22.10;99.90;;;;;;4996334;28;20030;-76
2023/09/09 04:46:36;;;;;;;125.18;112.40;;;22.00;99.90;;;;;;4996494;28;20045;-76
2023/09/09 04:49:03;;;;;;;123.13;110.45;;;22.10;99.90;;;;;;4996248;28;20027;-75
2023/09/09 04:51:29;;;;;;;127.13;114.13;;;22.10;99.90;;;;;;4996282;28;20016;-68
2023/09/09 04:53:55;;;;;;;123.10;110.40;;;22.00;99.90;;;;;;4996183;28;20045;-68
2023/09/09 04:56:20;;;;;;;125.70;112.55;;;22.00;99.90;;;;;;4996696;28;20019;-73
2023/09/09 04:58:46;;;;;;;127.25;113.68;;;21.90;99.90;;;;;;4996390;28;20061;-71
2023/09/09 05:01:11;;;;;;;121.95;109.30;;;22.00;99.90;;;;;;4995816;28;20040;-68
2023/09/09 05:03:37;;;;;;;124.53;111.75;;;22.00;99.90;;;;;;4995905;28;20026;-75
2023/09/09 05:06:03;;;;;;;122.88;110.32;;;22.00;99.90;;;;;;4995711;28;20072;-74
2023/09/09 05:08:28;;;;;;;125.22;112.45;;;22.00;99.90;;;;;;4994902;28;20033;-71
2023/09/09 05:10:54;;;;;;;122.82;110.32;;;22.00;99.90;;;;;;4995971;28;20058;-70
2023/09/09 05:13:20;;;;;;;121.95;109.25;;;22.00;99.90;;;;;;4995844;28;20471;-70
2023/09/09 05:15:46;;;;;;;121.47;109.10;;;21.90;99.90;;;;;;4995917;28;20030;-76
2023/09/09 05:18:12;;;;;;;117.38;105.28;;;21.90;99.90;;;;;;4995997;28;20022;-68
2023/09/09 05:20:38;;;;;;;121.97;109.00;;;21.90;99.90;;;;;;4980993;28;20070;-70
2023/09/09 05:23:03;;;;;;;121.15;108.40;;;21.90;99.90;;;;;;4976515;28;20492;-76
2023/09/09 05:25:29;;;;;;;117.70;105.53;;;21.90;99.90;;;;;;4976127;28;20031;-68
2023/09/09 05:27:54;;;;;;;120.20;107.88;;;21.90;99.90;;;;;;4976314;28;20027;-71
2023/09/09 05:30:21;;;;;;;120.95;108.47;;;21.90;99.90;;;;;;4987624;28;20035;-75
2023/09/09 05:32:46;;;;;;;118.70;106.10;;;21.90;99.90;;;;;;4974949;28;20027;-75
2023/09/09 05:35:12;;;;;;;115.13;103.13;;;21.80;99.90;;;;;;4974349;28;20037;-75
2023/09/09 05:37:41;;;;;;;119.57;107.18;;;21.90;99.90;;;;;;4970234;28;20524;-76
2023/09/09 05:40:07;;;;;;;113.13;101.43;;;21.90;99.90;;;;;;4974658;28;20078;-67
2023/09/09 05:42:33;;;;;;;115.60;103.63;;;21.80;99.90;;;;;;4975682;28;20081;-74
2023/09/09 05:44:58;;;;;;;116.47;104.43;;;21.90;99.90;;;;;;4973757;28;20034;-72
2023/09/09 05:47:24;;;;;;;110.53;99.18;;;21.90;99.90;;;;;;4986215;28;20030;-73
2023/09/09 05:49:52;;;;;;;109.40;98.15;;;21.80;99.90;;;;;;4994552;28;20384;-70
2023/09/09 05:52:18;;;;;;;107.95;97.05;;;21.80;99.90;;;;;;4985501;28;20391;-70
2023/09/09 05:54:43;;;;;;;112.13;100.50;;;21.80;99.90;;;;;;4975696;28;20023;-72
2023/09/09 05:57:09;;;;;;;113.30;101.53;;;21.70;99.90;;;;;;4975696;28;20027;-69
2023/09/09 05:59:38;;;;;;;110.78;99.15;;;21.70;99.90;;;;;;4975214;28;20030;-74
2023/09/09 06:02:04;;;;;;;114.72;102.78;;;21.70;99.90;;;;;;4975886;28;20027;-76
2023/09/09 06:04:31;;;;;;;113.20;101.07;;;21.70;99.90;;;;;;4984484;28;20132;-75
2023/09/09 06:06:57;;;;;;;112.78;100.95;;;21.70;99.90;;;;;;4994260;28;20530;-71
2023/09/09 06:09:23;;;;;;;112.55;100.38;;;21.70;99.90;;;;;;4979864;28;20022;-71
2023/09/09 06:11:50;;;;;;;114.03;102.45;;;21.80;99.90;;;;;;4975162;28;20085;-69
2023/09/09 06:14:15;;;;;;;116.00;103.60;;;21.80;99.90;;;;;;4984245;28;20034;-71
2023/09/09 06:16:41;;;;;;;91.43;81.47;;;21.90;99.90;;;;;;4994326;28;20035;-75
2023/09/09 06:19:07;;;;;;;94.43;84.55;;;22.00;99.90;;;;;;4985432;28;20110;-74
2023/09/09 06:21:33;;;;;;;88.00;78.70;;;22.10;99.90;;;;;;4978503;28;20042;-68
2023/09/09 06:23:58;;;;;;;90.43;81.03;;;22.20;99.90;;;;;;4994470;28;20092;-74
2023/09/09 06:26:24;;;;;;;92.30;82.82;;;22.20;99.90;;;;;;4975816;28;20053;-74
2023/09/09 06:28:50;;;;;;;87.05;77.95;;;22.20;99.90;;;;;;4985290;28;20022;-76
2023/09/09 06:31:16;;;;;;;86.32;76.93;;;22.30;99.90;;;;;;4997212;28;20025;-75
2023/09/09 06:33:42;;;;;;;87.15;78.00;;;22.30;99.90;;;;;;4974398;28;20515;-74
2023/09/09 06:36:07;;;;;;;97.60;87.38;;;22.30;99.90;;;;;;4974213;28;20114;-75
2023/09/09 06:38:33;;;;;;;99.88;89.57;;;22.30;99.90;;;;;;4983850;28;20022;-76
2023/09/09 06:40:58;;;;;;;92.70;82.97;;;22.30;99.90;;;;;;4993697;28;20073;-78
2023/09/09 06:43:24;;;;;;;125.82;112.63;;;22.40;99.90;;;;;;4986793;28;20486;-76
2023/09/09 06:45:50;;;;;;;111.90;99.72;;;22.50;99.90;;;;;;4991266;28;20085;-77
2023/09/09 06:48:17;;;;;;;109.70;98.50;;;22.50;99.90;;;;;;4996884;28;20022;-76
2023/09/09 06:50:46;;;;;;;88.22;79.13;;;22.40;99.90;;;;;;5002247;28;20030;-73
2023/09/09 06:53:13;;;;;;;80.32;72.15;;;22.40;99.90;;;;;;4989531;28;20069;-73
2023/09/09 06:55:46;;;;;;;85.93;77.25;;;22.40;99.90;;;;;;4993764;28;20026;-74
2023/09/09 06:58:12;;;;;;;99.07;88.85;;;22.40;99.90;;;;;;4993068;28;20027;-69
2023/09/09 07:00:38;;;;;;;75.18;67.43;;;22.50;99.90;;;;;;4990310;28;20577;-70
2023/09/09 07:03:04;;;;;;;73.45;65.80;;;22.50;99.90;;;;;;4994249;28;20114;-68
2023/09/09 07:05:33;;;;;;;68.18;61.22;;;22.50;99.90;;;;;;5007404;28;20033;-71
2023/09/09 07:07:59;;;;;;;69.35;62.13;;;22.50;99.90;;;;;;5013459;28;20026;-74
2023/09/09 07:10:25;;;;;;;78.00;70.00;;;22.50;99.90;;;;;;5013549;28;20033;-75
2023/09/09 07:12:52;;;;;;;77.38;69.32;;;22.50;99.90;;;;;;5013229;28;20440;-72
2023/09/09 07:15:18;;;;;;;80.63;72.50;;;22.60;99.90;;;;;;5013375;28;20091;-69
2023/09/09 07:17:47;;;;;;;69.15;62.13;;;22.60;99.90;;;;;;5008180;28;20484;-74
2023/09/09 07:20:12;;;;;;;71.35;64.00;;;22.60;99.90;;;;;;4982268;28;20058;-76
2023/09/09 07:22:39;;;;;;;74.80;66.93;;;22.60;99.90;;;;;;4978338;28;20057;-72
2023/09/09 07:25:05;;;;;;;78.70;70.32;;;22.60;99.90;;;;;;4993592;28;20049;-75
2023/09/09 07:27:31;;;;;;;75.60;67.78;;;22.70;99.90;;;;;;4982640;28;20046;-77
2023/09/09 07:29:57;;;;;;;77.25;69.43;;;22.70;99.90;;;;;;4968949;28;20485;-74
2023/09/09 07:32:22;;;;;;;72.63;64.88;;;22.70;99.90;;;;;;4972900;28;20031;-77
2023/09/09 07:34:49;;;;;;;70.82;63.42;;;22.70;99.90;;;;;;4979042;28;20034;-77
2023/09/09 07:37:15;;;;;;;68.47;61.60;;;22.80;99.90;;;;;;4971781;28;20438;-77
2023/09/09 07:39:51;;;;;;;66.43;59.55;;;22.80;99.90;;;;;;4971779;28;20110;-72
2023/09/09 07:42:17;;;;;;;64.18;57.75;;;22.80;99.90;;;;;;4974570;28;20034;-67
2023/09/09 07:44:44;;;;;;;60.40;54.05;;;22.90;99.90;;;;;;4977201;28;20087;-70
2023/09/09 07:47:11;;;;;;;65.13;58.40;;;22.90;99.90;;;;;;4976146;28;20578;-69
2023/09/09 07:49:37;;;;;;;66.03;59.47;;;22.90;99.90;;;;;;4972409;28;20073;-70
2023/09/09 07:52:03;;;;;;;61.08;54.83;;;22.90;99.90;;;;;;4970143;28;20067;-78
2023/09/09 07:54:30;;;;;;;62.20;55.60;;;23.00;99.90;;;;;;4971002;28;20030;-68
2023/09/09 07:56:56;;;;;;;63.58;56.92;;;23.00;99.90;;;;;;4964334;28;20039;-77
2023/09/09 07:59:22;;;;;;;59.03;53.35;;;23.10;99.90;;;;;;4976325;28;20018;-68
2023/09/09 08:01:47;;;;;;;57.60;51.88;;;23.10;99.90;;;;;;4969399;28;20042;-67
2023/09/09 08:04:14;;;;;;;53.67;48.58;;;23.10;99.90;;;;;;4975264;28;20022;-71
2023/09/09 08:06:39;;;;;;;59.72;54.00;;;23.20;99.90;;;;;;4981777;28;20031;-69
2023/09/09 08:09:06;;;;;;;56.13;50.55;;;23.20;99.90;;;;;;4986861;28;20027;-69
2023/09/09 08:11:31;;;;;;;53.70;48.60;;;23.30;99.90;;;;;;4978271;28;20027;-67
2023/09/09 08:13:57;;;;;;;55.22;50.03;;;23.30;99.90;;;;;;4976762;28;20042;-73
2023/09/09 08:16:22;;;;;;;55.25;50.10;;;23.30;99.90;;;;;;4973642;28;20124;-75
2023/09/09 08:18:48;;;;;;;53.53;48.08;;;23.30;99.90;;;;;;4976959;28;20063;-71
2023/09/09 08:21:14;;;;;;;51.60;46.55;;;23.40;99.90;;;;;;4994189;28;20372;-75
2023/09/09 08:23:40;;;;;;;52.72;47.58;;;23.40;99.90;;;;;;4997575;28;20527;-80
2023/09/09 08:26:06;;;;;;;53.22;48.03;;;23.40;99.90;;;;;;4991962;28;20022;-68
2023/09/09 08:28:32;;;;;;;53.90;48.67;;;23.40;99.90;;;;;;4994760;28;20041;-76
2023/09/09 08:30:59;;;;;;;49.97;44.85;;;23.40;99.90;;;;;;5002370;28;20108;-72
2023/09/09 08:33:24;;;;;;;48.70;43.92;;;23.50;99.90;;;;;;4995561;28;20044;-72
2023/09/09 08:35:50;;;;;;;46.85;42.38;;;23.50;99.90;;;;;;4997333;28;20467;-72
2023/09/09 08:38:16;;;;;;;45.38;40.95;;;23.60;99.90;;;;;;4996075;28;20081;-72
2023/09/09 08:41:29;;;;;;;46.67;42.08;;;23.60;99.90;;;;;;4998079;28;20096;-71
2023/09/09 08:44:04;;;;;;;45.55;40.80;;;23.70;99.90;;;;;;5002990;28;20049;-72
2023/09/09 08:46:30;;;;;;;46.88;42.38;;;23.70;99.90;;;;;;5007024;28;20042;-72
2023/09/09 08:48:59;;;;;;;43.58;39.47;;;23.80;99.90;;;;;;5013692;28;20120;-74
2023/09/09 08:51:52;;;;;;;44.63;40.30;;;23.80;99.90;;;;;;4992253;28;20026;-69
2023/09/09 08:54:17;;;;;;;41.83;37.92;;;23.80;99.90;;;;;;4995125;28;20018;-68
2023/09/09 08:56:44;;;;;;;42.78;38.45;;;23.80;99.90;;;;;;4992635;28;20049;-70
2023/09/09 08:59:12;;;;;;;43.40;39.03;;;23.80;99.90;;;;;;4990969;28;20037;-71
2023/09/09 09:01:39;;;;;;;42.10;38.03;;;23.80;99.90;;;;;;4994125;28;20042;-74
2023/09/09 09:04:05;;;;;;;40.85;36.92;;;23.90;99.90;;;;;;4992110;28;20076;-74
2023/09/09 09:06:33;;;;;;;42.83;38.30;;;23.90;99.90;;;;;;4997339;28;20036;-75
2023/09/09 09:08:58;;;;;;;41.47;37.40;;;24.00;99.90;;;;;;4994618;28;20034;-70
2023/09/09 09:11:25;;;;;;;42.17;37.85;;;24.00;99.90;;;;;;4999252;28;20042;-73
2023/09/09 09:13:51;;;;;;;41.03;37.00;;;24.00;99.90;;;;;;5002030;28;20352;-69
2023/09/09 09:16:18;;;;;;;39.58;35.72;;;24.10;99.90;;;;;;4990488;28;20191;-69
2023/09/09 09:18:44;;;;;;;32.47;29.08;;;24.00;99.90;;;;;;4991057;28;20105;-70
2023/09/09 09:21:10;;;;;;;36.80;33.00;;;24.00;99.90;;;;;;4992133;28;20125;-69
2023/09/09 09:23:46;;;;;;;38.97;34.67;;;24.10;99.90;;;;;;4992096;28;20022;-74
2023/09/09 09:26:24;;;;;;;29.17;26.10;;;24.10;99.90;;;;;;4993916;28;20042;-69
2023/09/09 09:28:51;;;;;;;27.00;24.50;;;24.10;99.90;;;;;;4988903;28;20050;-69
2023/09/09 09:31:21;;;;;;;24.80;22.50;;;24.20;99.90;;;;;;4998310;28;20022;-72
2023/09/09 09:33:56;;;;;;;22.23;19.92;;;24.20;99.90;;;;;;4987781;28;20025;-73
2023/09/09 09:36:23;;;;;;;22.75;20.70;;;24.20;99.90;;;;;;4988516;28;20055;-76
2023/09/09 09:38:50;;;;;;;22.55;20.25;;;24.20;99.90;;;;;;4991464;28;20038;-74
2023/09/09 09:41:17;;;;;;;26.95;23.90;;;24.20;99.90;;;;;;4992099;28;20501;-76
2023/09/09 09:43:46;;;;;;;27.85;24.77;;;24.20;99.90;;;;;;4996781;28;20023;-79
2023/09/09 09:46:19;;;;;;;24.70;22.25;;;24.30;99.90;;;;;;4991820;28;20089;-72
2023/09/09 09:48:45;;;;;;;22.75;20.65;;;24.30;99.90;;;;;;4990804;28;20387;-72
2023/09/09 09:51:11;;;;;;;20.48;18.35;;;24.30;99.90;;;;;;4996061;28;20038;-77
2023/09/09 09:53:49;;;;;;;28.85;25.92;;;24.30;99.90;;;;;;4993556;28;20027;-77
2023/09/09 09:56:16;;;;;;;23.27;20.98;;;24.30;99.90;;;;;;4994821;28;20459;-77
2023/09/09 09:58:44;;;;;;;29.27;26.23;;;24.30;99.90;;;;;;4994129;28;20019;-76
2023/09/09 10:01:10;;;;;;;30.40;27.35;;;24.40;99.90;;;;;;4995534;28;20037;-71
2023/09/09 10:03:55;;;;;;;29.92;27.10;;;24.40;99.90;;;;;;4991998;28;20022;-71
2023/09/09 10:06:32;;;;;;;29.20;26.30;;;24.50;99.90;;;;;;4999980;28;20109;-71
2023/09/09 10:09:12;;;;;;;32.00;28.67;;;24.50;99.90;;;;;;4997153;28;20491;-75
2023/09/09 10:11:52;;;;;;;31.15;28.13;;;24.50;99.90;;;;;;4988761;28;20455;-71
2023/09/09 10:14:23;;;;;;;29.30;26.30;;;24.50;99.90;;;;;;4994511;28;20026;-71
2023/09/09 10:16:52;;;;;;;30.95;27.88;;;24.60;99.90;;;;;;4998709;28;20057;-70
2023/09/09 10:19:19;;;;;;;29.10;26.33;;;24.60;99.90;;;;;;5003436;28;20383;-72
2023/09/09 10:21:46;;;;;;;29.98;24.40;;;24.60;99.90;;;;;;4994354;28;20045;-73
2023/09/09 10:24:14;;;;;;;26.48;23.77;;;24.60;99.90;;;;;;4993250;28;20053;-76
2023/09/09 10:26:41;;;;;;;19.85;17.83;;;24.70;99.90;;;;;;4990111;28;20023;-71
2023/09/09 10:29:08;;;;;;;21.67;19.63;;;24.70;99.50;;;;;;4992851;28;20030;-72
2023/09/09 10:31:36;;;;;;;18.88;16.67;;;24.80;99.60;;;;;;4992693;28;21109;-75
2023/09/09 10:34:02;;;;;;;13.80;12.38;;;24.80;99.70;;;;;;5000668;28;20051;-70
2023/09/09 10:36:31;;;;;;;16.85;15.25;;;24.70;99.90;;;;;;5000298;28;20022;-71
2023/09/09 10:38:57;;;;;;;17.58;15.77;;;24.80;99.90;;;;;;4994429;28;20056;-70
2023/09/09 10:41:22;;;;;;;18.45;13.98;;;24.80;99.90;;;;;;4990238;28;20108;-70
2023/09/09 10:43:48;;;;;;;13.40;12.00;;;24.80;99.90;;;;;;4992895;28;20034;-72
2023/09/09 10:46:14;;;;;;;15.88;12.80;;;24.80;99.70;;;;;;4993088;28;20027;-71
2023/09/09 10:48:43;;;;;;;12.98;11.70;;;24.80;99.40;;;;;;5001981;28;20025;-70
2023/09/09 10:51:10;;;;;;;11.52;10.48;;;24.80;99.60;;;;;;5002708;28;20368;-77
2023/09/09 10:53:36;;;;;;;12.93;11.50;;;24.80;99.70;;;;;;4990860;28;20026;-70
2023/09/09 10:56:16;;;;;;;14.85;11.75;;;24.90;99.30;;;;;;4993108;28;20034;-71
2023/09/09 10:58:44;;;;;;;13.02;9.93;;;24.90;99.00;;;;;;4995276;28;20113;-71
2023/09/09 11:01:26;;;;;;;11.38;8.52;;;24.90;99.70;;;;;;5007911;28;20099;-70
2023/09/09 11:03:52;;;;;;;11.98;10.43;;;24.90;99.80;;;;;;4980651;28;20357;-74
2023/09/09 11:06:24;;;;;;;11.90;9.70;;;25.00;99.30;;;;;;4992032;28;20038;-73
2023/09/09 11:08:54;;;;;;;14.60;11.10;;;25.00;99.90;;;;;;4994205;28;20543;-75
2023/09/09 11:11:34;;;;;;;10.80;9.65;;;25.00;99.20;;;;;;4992708;28;20035;-78
2023/09/09 11:14:05;;;;;;;9.55;8.27;;;25.00;99.20;;;;;;4983450;28;20403;-71
2023/09/09 11:16:41;;;;;;;13.43;7.90;;;25.00;98.90;;;;;;4990492;28;20050;-68
2023/09/09 11:19:12;;;;;;;13.45;8.38;;;25.00;99.40;;;;;;5004683;28;20196;-68
2023/09/09 11:21:46;;;;;;;11.75;8.70;;;25.00;99.50;;;;;;4970823;28;20097;-72
2023/09/09 11:24:13;;;;;;;9.05;7.85;;;25.00;99.20;;;;;;4976531;28;20031;-68
2023/09/09 11:26:40;;;;;;;12.25;7.93;;;25.00;99.00;;;;;;4976603;28;20034;-70
2023/09/09 11:29:07;;;;;;;8.90;8.00;;;25.00;99.40;;;;;;4972900;28;20488;-68
2023/09/09 11:31:32;;;;;;;10.20;7.13;;;25.10;99.30;;;;;;4970113;28;20098;-68
2023/09/09 11:33:58;;;;;;;8.68;7.68;;;25.10;99.80;;;;;;4973403;28;20113;-70
2023/09/09 11:36:24;;;;;;;7.53;6.72;;;25.10;99.60;;;;;;4980712;28;20070;-75
2023/09/09 11:38:50;;;;;;;9.63;7.00;;;25.10;99.70;;;;;;4973811;28;20061;-69
2023/09/09 11:41:24;;;;;;;7.60;6.57;;;25.10;99.90;;;;;;4973404;28;20050;-74
2023/09/09 11:44:06;;;;;;;7.07;6.47;;;25.10;99.80;;;;;;4978570;28;20384;-70
2023/09/09 11:46:36;;;;;;;7.63;6.60;;;25.20;99.90;;;;;;4971533;28;20050;-66
2023/09/09 11:49:02;;;;;;;9.02;7.47;;;25.10;99.90;;;;;;4972620;28;20480;-68
2023/09/09 11:51:29;;;;;;;7.95;7.15;;;25.20;99.90;;;;;;4983617;28;20563;-68
2023/09/09 11:53:55;;;;;;;8.95;6.75;;;25.20;99.90;;;;;;4974221;28;20050;-69
2023/09/09 11:56:21;;;;;;;7.57;6.78;;;25.20;99.90;;;;;;4975198;28;20034;-68
2023/09/09 11:58:48;;;;;;;9.85;8.13;;;25.20;99.90;;;;;;4989116;28;20026;-70
2023/09/09 12:01:14;;;;;;;7.00;6.10;;;25.30;99.90;;;;;;4983741;28;20035;-69
2023/09/09 12:03:40;;;;;;;7.88;7.07;;;25.30;99.90;;;;;;4969922;28;20030;-69
2023/09/09 12:06:07;;;;;;;11.05;8.18;;;25.30;99.90;;;;;;4974905;28;20030;-70
2023/09/09 12:08:34;;;;;;;10.38;7.13;;;25.30;99.90;;;;;;4975744;28;20106;-68
2023/09/09 12:11:03;;;;;;;8.38;6.50;;;25.30;99.90;;;;;;4982137;28;20067;-70
2023/09/09 12:13:30;;;;;;;9.52;6.35;;;25.30;99.90;;;;;;4971191;28;20096;-75
2023/09/09 12:15:57;;;;;;;11.48;7.25;;;25.30;99.90;;;;;;4958575;28;20050;-75
2023/09/09 12:18:22;;;;;;;10.45;7.95;;;25.30;99.90;;;;;;4977002;28;20027;-70
2023/09/09 12:21:00;;;;;;;8.65;7.18;;;25.30;99.90;;;;;;4975002;28;20189;-71
2023/09/09 12:23:45;;;;;;;9.65;6.50;;;25.40;99.90;;;;;;4970730;28;20543;-72
2023/09/09 12:26:11;;;;;;;7.50;6.63;;;25.30;99.90;;;;;;4983540;28;20043;-75